Time;durP1;ratioP1;P1;durP2;ratioP2;P2;SDS_P1;SDS_P2;PMS_P1;PMS_P2;Temp;Humidity;BMP_temperature;BMP_pressure;BME280_temperature;BME280_humidity;BME280_pressure;Samples;Min_cycle;Max_cycle;Signal;HPM_P1;HPM_P2
2023/10/02 00:01:52;;;;;;;23.20;13.40;;;17.00;99.90;;;;;;4959362;28;89827;-31
2023/10/02 00:04:19;;;;;;;21.58;14.65;;;16.90;99.90;;;;;;4958229;28;89258;-37
2023/10/02 00:06:45;;;;;;;23.85;15.60;;;16.90;99.90;;;;;;4958157;28;91491;-35
2023/10/02 00:09:11;;;;;;;23.60;14.80;;;16.90;99.90;;;;;;4957246;28;91786;-34
2023/10/02 00:11:39;;;;;;;24.27;15.95;;;16.90;99.90;;;;;;4959126;28;89196;-34
2023/10/02 00:14:20;;;;;;;23.30;15.77;;;16.80;99.90;;;;;;4958512;28;87955;-32
2023/10/02 00:16:59;;;;;;;22.75;14.25;;;16.80;99.90;;;;;;4957563;28;89451;-32
2023/10/02 00:19:37;;;;;;;21.05;14.55;;;16.80;99.90;;;;;;4958677;28;90503;-32
2023/10/02 00:22:07;;;;;;;20.52;15.70;;;16.80;99.90;;;;;;4957516;28;89778;-34
2023/10/02 00:24:38;;;;;;;26.90;16.90;;;16.80;99.90;;;;;;4958492;28;89187;-35
2023/10/02 00:27:08;;;;;;;21.55;15.23;;;16.80;99.90;;;;;;4958152;28;90046;-32
2023/10/02 00:29:35;;;;;;;33.33;16.33;;;16.70;99.90;;;;;;4957094;28;90360;-36
2023/10/02 00:32:10;;;;;;;22.27;15.52;;;16.70;99.90;;;;;;4958588;28;89548;-33
2023/10/02 00:34:38;;;;;;;23.23;15.52;;;16.70;99.90;;;;;;4957461;28;90210;-34
2023/10/02 00:37:11;;;;;;;24.53;15.83;;;16.70;99.90;;;;;;4957898;28;90454;-34
2023/10/02 00:39:39;;;;;;;24.52;15.93;;;16.70;99.90;;;;;;4944944;28;89142;-34
2023/10/02 00:42:17;;;;;;;21.45;15.15;;;16.70;99.90;;;;;;4957782;28;90815;-34
2023/10/02 00:45:01;;;;;;;29.65;15.73;;;16.70;99.90;;;;;;4957974;28;88423;-35
2023/10/02 00:48:33;;;;;;;15.13;13.52;;;16.70;99.90;;;;;;4945330;28;89842;-35
2023/10/02 00:50:27;;;;;;;22.70;16.10;;;16.70;99.90;;;;;;4952490;28;88692;-35
2023/10/02 00:52:55;;;;;;;26.38;16.52;;;16.70;99.90;;;;;;4947747;28;90159;-34
2023/10/02 00:55:30;;;;;;;22.38;14.88;;;16.80;99.90;;;;;;4948174;28;89769;-34
2023/10/02 00:57:56;;;;;;;22.38;16.17;;;16.80;99.90;;;;;;4949265;28;89021;-32
2023/10/02 01:00:36;;;;;;;23.52;16.35;;;16.80;99.90;;;;;;4943386;28;89274;-33
2023/10/02 01:03:16;;;;;;;25.33;15.68;;;16.80;99.90;;;;;;4944411;28;90486;-32
2023/10/02 01:05:50;;;;;;;24.45;15.93;;;16.80;99.90;;;;;;4954078;28;89211;-34
2023/10/02 01:08:25;;;;;;;23.13;16.35;;;16.80;99.90;;;;;;4948032;28;90579;-33
2023/10/02 01:11:02;;;;;;;25.15;15.43;;;16.90;99.90;;;;;;4953489;28;90164;-32
2023/10/02 01:13:32;;;;;;;26.73;16.60;;;16.90;99.90;;;;;;4954883;28;89684;-31
2023/10/02 01:16:00;;;;;;;27.73;16.98;;;16.90;99.90;;;;;;4954306;28;89514;-34
2023/10/02 01:18:29;;;;;;;23.50;14.90;;;16.90;99.90;;;;;;4954449;28;90201;-32
2023/10/02 01:20:59;;;;;;;29.00;17.50;;;16.90;99.90;;;;;;4957977;28;89951;-33
2023/10/02 01:23:31;;;;;;;21.60;15.25;;;16.90;99.90;;;;;;4950267;28;89542;-31
2023/10/02 01:26:00;;;;;;;24.60;15.32;;;16.90;99.90;;;;;;4949242;28;88234;-33
2023/10/02 01:28:49;;;;;;;26.73;16.67;;;16.90;99.90;;;;;;4950494;28;89917;-32
2023/10/02 01:31:31;;;;;;;26.35;16.73;;;16.90;99.90;;;;;;4954194;28;89331;-33
2023/10/02 01:33:59;;;;;;;24.15;15.10;;;17.00;99.90;;;;;;4949570;28;89567;-33
2023/10/02 01:36:28;;;;;;;23.30;13.98;;;16.90;99.90;;;;;;4961418;28;88416;-35
2023/10/02 01:38:59;;;;;;;23.10;16.50;;;17.00;99.90;;;;;;4960141;28;88949;-31
2023/10/02 01:41:26;;;;;;;24.33;15.52;;;17.00;99.90;;;;;;4960884;28;91264;-35
2023/10/02 01:43:55;;;;;;;20.52;15.57;;;16.90;99.90;;;;;;4960835;28;89916;-36
2023/10/02 01:46:22;;;;;;;20.92;15.73;;;17.00;99.90;;;;;;4960848;28;88162;-35
2023/10/02 01:48:50;;;;;;;22.73;14.88;;;17.00;99.90;;;;;;4960287;28;89831;-34
2023/10/02 01:51:20;;;;;;;;;;;17.00;99.90;;;;;;4959624;28;89851;-34
2023/10/02 01:54:02;;;;;;;25.20;15.35;;;17.00;99.90;;;;;;4962440;28;89680;-35
2023/10/02 01:56:34;;;;;;;25.83;15.82;;;17.00;99.90;;;;;;4960722;28;89287;-35
2023/10/02 01:59:10;;;;;;;23.73;15.57;;;16.90;99.90;;;;;;4954270;28;90293;-32
2023/10/02 02:01:46;;;;;;;22.33;16.17;;;17.00;99.90;;;;;;4956836;28;88991;-33
2023/10/02 02:04:16;;;;;;;28.33;17.38;;;17.00;99.90;;;;;;4959620;28;91682;-32
2023/10/02 02:06:54;;;;;;;26.88;16.77;;;17.00;99.90;;;;;;4959502;28;88162;-31
2023/10/02 02:09:23;;;;;;;;;;;17.00;99.90;;;;;;4960525;28;88715;-36
2023/10/02 02:12:05;;;;;;;24.02;16.25;;;17.00;99.90;;;;;;4962353;28;89706;-35
2023/10/02 02:14:51;;;;;;;27.52;16.80;;;17.00;99.90;;;;;;4955673;28;89546;-35
2023/10/02 02:17:22;;;;;;;23.90;16.83;;;17.00;99.90;;;;;;4959902;28;90233;-32
2023/10/02 02:19:48;;;;;;;25.48;16.10;;;17.00;99.90;;;;;;4959771;28;90153;-35
2023/10/02 02:22:14;;;;;;;23.88;16.60;;;17.00;99.90;;;;;;4959518;28;90116;-36
2023/10/02 02:24:40;;;;;;;25.77;16.83;;;17.00;99.90;;;;;;4959911;28;89311;-33
2023/10/02 02:27:07;;;;;;;31.23;18.25;;;17.00;99.90;;;;;;4959599;28;89856;-32
2023/10/02 02:29:34;;;;;;;23.90;15.73;;;17.00;99.90;;;;;;4947229;28;90298;-35
2023/10/02 02:32:00;;;;;;;28.00;16.08;;;17.00;99.90;;;;;;4947278;28;90012;-32
2023/10/02 02:34:26;;;;;;;22.30;16.08;;;17.00;99.90;;;;;;4940836;28;88518;-34
2023/10/02 02:36:54;;;;;;;25.58;16.77;;;17.00;99.90;;;;;;4940988;28;88402;-37
2023/10/02 02:39:22;;;;;;;28.77;16.20;;;17.00;99.90;;;;;;4952641;28;88887;-33
2023/10/02 02:44:49;;;;;;;26.65;17.45;;;17.00;99.90;;;;;;4948953;28;91061;-36
2023/10/02 02:47:17;;;;;;;22.38;15.25;;;17.00;99.90;;;;;;4959286;28;88277;-33
2023/10/02 02:49:48;;;;;;;24.13;17.17;;;17.00;99.90;;;;;;4958998;28;90090;-34
2023/10/02 02:52:19;;;;;;;26.65;17.40;;;17.00;99.90;;;;;;4959659;28;89400;-33
2023/10/02 02:54:47;;;;;;;23.65;16.58;;;17.00;99.90;;;;;;4959484;28;89489;-35
2023/10/02 02:57:18;;;;;;;;;;;17.00;99.90;;;;;;4959778;28;89135;-36
2023/10/02 02:59:45;;;;;;;29.73;18.73;;;16.90;99.90;;;;;;4942877;28;89498;-34
2023/10/02 03:02:21;;;;;;;26.23;16.52;;;16.90;99.90;;;;;;4952946;28;89361;-35
2023/10/02 03:04:50;;;;;;;33.67;18.65;;;16.90;99.90;;;;;;4941328;28;88182;-35
2023/10/02 03:07:36;;;;;;;26.98;17.42;;;16.90;99.90;;;;;;4941771;28;88787;-31
2023/10/02 03:10:02;;;;;;;24.13;17.73;;;16.90;99.90;;;;;;4940627;28;89965;-35
2023/10/02 03:12:29;;;;;;;25.27;16.75;;;16.80;99.90;;;;;;4941270;28;89989;-35
2023/10/02 03:14:58;;;;;;;27.38;18.17;;;16.90;99.90;;;;;;4951911;28;89200;-32
2023/10/02 03:17:30;;;;;;;26.23;16.90;;;16.80;99.90;;;;;;4940924;28;89430;-33
2023/10/02 03:19:58;;;;;;;30.73;19.60;;;16.80;99.90;;;;;;4940566;28;89079;-34
2023/10/02 03:22:24;;;;;;;;;;;16.70;99.90;;;;;;4941348;28;89676;-36
2023/10/02 03:24:53;;;;;;;31.10;19.90;;;16.70;99.90;;;;;;4944560;28;88933;-36
2023/10/02 03:27:21;;;;;;;25.27;17.27;;;16.70;99.90;;;;;;4948343;28;88824;-35
2023/10/02 03:29:49;;;;;;;;;;;16.70;99.90;;;;;;4945517;28;90430;-33
2023/10/02 03:32:14;;;;;;;27.17;17.55;;;16.70;99.90;;;;;;4949331;28;90700;-33
2023/10/02 03:34:41;;;;;;;26.08;17.38;;;16.70;99.90;;;;;;4945392;28;90395;-34
2023/10/02 03:39:59;;;;;;;24.70;17.05;;;16.60;99.90;;;;;;4951312;28;90231;-32
2023/10/02 03:42:31;;;;;;;25.35;17.17;;;16.60;99.90;;;;;;4951978;28;89507;-35
2023/10/02 03:44:58;;;;;;;25.42;17.55;;;16.60;99.90;;;;;;4939406;28;89625;-33
2023/10/02 03:47:33;;;;;;;26.57;16.83;;;16.60;99.90;;;;;;4957426;28;89540;-33
2023/10/02 03:50:03;;;;;;;25.58;16.98;;;16.50;99.90;;;;;;4958375;28;90420;-35
2023/10/02 03:52:30;;;;;;;26.48;17.92;;;16.50;99.90;;;;;;4958373;28;90047;-33
2023/10/02 03:54:57;;;;;;;31.23;17.73;;;16.50;99.90;;;;;;4951908;28;89878;-34
2023/10/02 04:00:27;;;;;;;21.90;16.75;;;16.40;99.90;;;;;;4949175;28;90105;-32
2023/10/02 04:02:54;;;;;;;21.90;17.23;;;16.40;99.90;;;;;;4957288;28;89844;-33
2023/10/02 04:05:32;;;;;;;30.67;18.50;;;16.40;99.90;;;;;;4957087;28;88598;-34
2023/10/02 04:08:21;;;;;;;29.70;18.67;;;16.40;99.90;;;;;;4946329;28;89199;-33
2023/10/02 04:10:55;;;;;;;26.02;16.40;;;16.30;99.90;;;;;;4956524;28;90692;-35
2023/10/02 04:13:23;;;;;;;26.98;17.23;;;16.30;99.90;;;;;;4956445;28;89749;-33
2023/10/02 04:15:53;;;;;;;28.52;16.95;;;16.20;99.90;;;;;;4956629;28;88739;-35
2023/10/02 04:18:45;;;;;;;24.98;17.63;;;16.20;99.90;;;;;;4957102;28;89701;-35
2023/10/02 04:21:09;;;;;;;24.40;17.60;;;16.10;99.90;;;;;;4946913;28;90979;-33
2023/10/02 04:23:40;;;;;;;30.73;17.67;;;16.10;99.90;;;;;;4954532;28;90831;-36
2023/10/02 04:26:22;;;;;;;26.15;18.20;;;16.10;99.90;;;;;;4956816;28;90019;-36
2023/10/02 04:29:37;;;;;;;26.15;17.75;;;16.10;99.90;;;;;;4956592;28;88768;-34
2023/10/02 04:31:44;;;;;;;27.77;18.58;;;16.10;99.90;;;;;;4953644;28;90213;-34
2023/10/02 04:34:29;;;;;;;22.80;17.92;;;16.00;99.90;;;;;;4956918;28;90024;-34
2023/10/02 04:36:55;;;;;;;25.80;19.13;;;16.00;99.90;;;;;;4945075;28;89484;-34
2023/10/02 04:42:12;;;;;;;30.52;18.27;;;16.00;99.90;;;;;;4931551;28;90385;-33
2023/10/02 04:44:46;;;;;;;28.73;19.90;;;16.00;99.90;;;;;;4946608;28;91197;-34
2023/10/02 04:47:19;;;;;;;26.77;17.60;;;15.90;99.90;;;;;;4957487;28;89645;-34
2023/10/02 04:52:57;;;;;;;30.85;18.25;;;16.00;99.90;;;;;;4958477;28;90758;-34
2023/10/02 04:55:41;;;;;;;31.65;19.70;;;16.00;99.90;;;;;;4956409;28;89242;-35
2023/10/02 04:58:14;;;;;;;25.15;17.08;;;16.00;99.90;;;;;;4957430;28;89227;-35
2023/10/02 05:03:29;;;;;;;28.40;17.77;;;16.00;99.90;;;;;;4958291;28;91781;-32
2023/10/02 05:05:58;;;;;;;25.30;16.67;;;15.90;99.90;;;;;;4956643;28;90346;-35
2023/10/02 05:09:17;;;;;;;27.23;18.45;;;15.90;99.90;;;;;;4947252;28;90202;-33
2023/10/02 05:11:46;;;;;;;33.95;17.10;;;15.90;99.90;;;;;;4938945;28;90217;-33
2023/10/02 05:14:14;;;;;;;32.50;18.23;;;15.80;99.90;;;;;;4948027;28;89249;-35
2023/10/02 05:16:42;;;;;;;26.17;17.17;;;15.80;99.90;;;;;;4947728;28;90763;-34
2023/10/02 05:19:09;;;;;;;26.90;17.85;;;15.80;99.90;;;;;;4944368;28;90510;-36
2023/10/02 05:21:55;;;;;;;30.30;16.73;;;15.80;99.90;;;;;;4943086;28;89708;-33
2023/10/02 05:24:20;;;;;;;30.80;17.55;;;15.80;99.90;;;;;;4942111;28;89874;-35
2023/10/02 05:26:46;;;;;;;26.45;17.58;;;15.70;99.90;;;;;;4944826;28;90039;-34
2023/10/02 05:29:17;;;;;;;25.17;17.77;;;15.70;99.90;;;;;;4944283;28;89833;-37
2023/10/02 05:31:47;;;;;;;26.27;17.75;;;15.70;99.90;;;;;;4954776;28;89180;-32
2023/10/02 05:34:22;;;;;;;28.17;18.15;;;15.70;99.90;;;;;;4950533;28;89696;-34
2023/10/02 05:39:39;;;;;;;29.63;18.52;;;15.70;99.90;;;;;;5004952;22;89634;-33
2023/10/02 05:42:15;;;;;;;25.02;17.48;;;15.60;99.90;;;;;;4952918;28;90845;-33
2023/10/02 05:44:45;;;;;;;24.50;18.63;;;15.70;99.90;;;;;;4957529;28;90052;-34
2023/10/02 05:47:18;;;;;;;32.25;18.98;;;15.60;99.90;;;;;;4957009;28;90187;-33
2023/10/02 05:49:47;;;;;;;37.47;19.80;;;15.60;99.90;;;;;;4957761;28;89674;-35
2023/10/02 05:52:14;;;;;;;28.60;18.67;;;15.60;99.90;;;;;;4946142;28;88525;-33
2023/10/02 05:54:47;;;;;;;29.57;19.27;;;15.60;99.90;;;;;;4952873;28;89589;-33
2023/10/02 05:57:13;;;;;;;27.95;18.58;;;15.70;99.90;;;;;;4958170;28;89972;-33
2023/10/02 05:59:44;;;;;;;26.63;18.60;;;15.60;99.90;;;;;;4958110;28;89617;-34
2023/10/02 06:02:14;;;;;;;24.92;19.10;;;15.70;99.90;;;;;;4951375;28;88833;-35
2023/10/02 06:04:47;;;;;;;28.10;18.05;;;15.70;99.90;;;;;;4957399;28;90261;-32
2023/10/02 06:10:18;;;;;;;30.77;18.92;;;15.70;99.90;;;;;;4958121;28;90423;-35
2023/10/02 06:12:45;;;;;;;24.20;17.13;;;15.70;99.90;;;;;;4957841;28;87838;-36
2023/10/02 06:17:58;;;;;;;27.00;18.27;;;15.70;99.90;;;;;;4948685;28;90885;-32
2023/10/02 06:20:24;;;;;;;35.10;20.40;;;15.70;99.90;;;;;;4957528;28;89783;-32
2023/10/02 06:22:51;;;;;;;28.10;18.33;;;15.70;99.90;;;;;;4958263;28;88830;-34
2023/10/02 06:25:19;;;;;;;27.77;18.63;;;15.70;99.90;;;;;;4958297;28;89728;-34
2023/10/02 06:27:47;;;;;;;30.88;19.42;;;15.80;99.90;;;;;;4958251;28;90349;-34
2023/10/02 06:30:18;;;;;;;31.40;18.65;;;15.80;99.90;;;;;;4957089;28;89277;-36
2023/10/02 06:32:52;;;;;;;27.30;17.70;;;15.80;99.90;;;;;;4957185;28;89006;-33
2023/10/02 06:35:26;;;;;;;34.10;19.50;;;15.80;99.90;;;;;;4958803;28;90659;-35
2023/10/02 06:37:52;;;;;;;27.45;18.63;;;15.80;99.90;;;;;;4956653;28;89578;-36
2023/10/02 06:40:23;;;;;;;21.17;17.00;;;15.90;99.90;;;;;;4957768;28;89271;-35
2023/10/02 06:42:51;;;;;;;30.40;18.33;;;15.90;99.90;;;;;;4939982;28;89786;-35
2023/10/02 06:45:18;;;;;;;30.23;17.92;;;15.90;99.90;;;;;;4938792;28;90313;-31
2023/10/02 06:47:44;;;;;;;29.98;19.20;;;16.00;99.90;;;;;;4946076;28;90133;-35
2023/10/02 06:50:27;;;;;;;25.15;17.90;;;16.00;99.90;;;;;;4958327;28;89325;-33
2023/10/02 06:52:54;;;;;;;27.30;17.48;;;16.10;99.90;;;;;;4940613;28;89156;-32
2023/10/02 06:55:21;;;;;;;30.40;18.88;;;16.10;99.90;;;;;;4936791;28;90414;-35
2023/10/02 06:57:50;;;;;;;28.33;18.60;;;16.10;99.90;;;;;;4950116;28;90726;-36
2023/10/02 07:00:19;;;;;;;29.58;19.85;;;16.20;99.90;;;;;;4937854;28;89276;-35
2023/10/02 07:02:57;;;;;;;26.58;17.30;;;16.20;99.90;;;;;;4940058;28;89922;-35
2023/10/02 07:05:32;;;;;;;26.70;17.60;;;16.30;99.90;;;;;;4937177;28;90416;-32
2023/10/02 07:08:27;;;;;;;29.60;17.98;;;16.30;99.90;;;;;;4938411;28;88789;-32
2023/10/02 07:10:52;;;;;;;27.75;17.95;;;16.30;99.90;;;;;;4938254;28;88863;-33
2023/10/02 07:13:19;;;;;;;27.35;18.20;;;16.40;99.90;;;;;;4950474;28;89386;-34
2023/10/02 07:15:48;;;;;;;30.58;18.50;;;16.40;99.90;;;;;;4940515;28;90878;-33
2023/10/02 07:18:14;;;;;;;31.55;19.08;;;16.40;99.90;;;;;;4939102;28;89645;-36
2023/10/02 07:20:44;;;;;;;25.33;16.33;;;16.50;99.90;;;;;;4944395;28;89528;-33
2023/10/02 07:23:19;;;;;;;26.60;18.10;;;16.50;99.90;;;;;;4956562;28;90196;-32
2023/10/02 07:25:50;;;;;;;30.00;17.70;;;16.60;99.90;;;;;;4947362;28;89602;-31
2023/10/02 07:28:21;;;;;;;31.98;17.42;;;16.60;99.90;;;;;;4941770;28;90100;-34
2023/10/02 07:30:47;;;;;;;23.48;17.65;;;16.70;99.90;;;;;;4938644;28;89516;-34
2023/10/02 07:33:13;;;;;;;31.50;18.33;;;16.80;99.90;;;;;;4942273;28;88834;-33
2023/10/02 07:35:39;;;;;;;33.92;19.83;;;16.90;99.90;;;;;;4956895;28;89893;-34
2023/10/02 07:38:08;;;;;;;27.83;18.40;;;16.90;99.90;;;;;;4948124;28;90754;-37
2023/10/02 07:40:48;;;;;;;30.17;18.25;;;16.90;99.90;;;;;;4941803;28;89843;-33
2023/10/02 07:43:21;;;;;;;29.98;18.42;;;16.90;99.90;;;;;;4936748;28;88148;-36
2023/10/02 07:46:01;;;;;;;32.53;18.38;;;17.00;99.90;;;;;;4937375;28;89714;-35
2023/10/02 07:48:31;;;;;;;35.45;20.13;;;17.10;99.90;;;;;;4948986;28;90143;-36
2023/10/02 07:50:59;;;;;;;26.13;17.02;;;17.20;99.90;;;;;;4955007;28;89856;-34
2023/10/02 07:53:38;;;;;;;30.07;17.40;;;17.20;99.90;;;;;;4937850;28;89052;-34
2023/10/02 07:56:06;;;;;;;27.60;17.45;;;17.30;99.90;;;;;;4950675;28;90807;-34
2023/10/02 07:58:35;;;;;;;28.98;19.08;;;17.30;99.90;;;;;;4937320;28;89735;-34
2023/10/02 08:01:11;;;;;;;24.23;16.20;;;17.40;99.90;;;;;;4937091;28;90936;-35
2023/10/02 08:03:43;;;;;;;30.40;18.00;;;17.40;99.90;;;;;;4937969;28;89248;-33
2023/10/02 08:06:23;;;;;;;24.67;18.08;;;17.50;99.90;;;;;;4934866;28;91764;-34
2023/10/02 08:11:39;;;;;;;26.58;18.08;;;17.50;99.90;;;;;;4949252;28;90013;-33
2023/10/02 08:14:06;;;;;;;25.83;17.00;;;17.50;99.90;;;;;;4954881;28;89410;-34
2023/10/02 08:16:58;;;;;;;28.80;17.90;;;17.60;99.90;;;;;;4943178;28;89930;-35
2023/10/02 08:19:20;;;;;;;28.85;17.67;;;17.70;99.90;;;;;;4937439;28;90123;-33
2023/10/02 08:21:46;;;;;;;33.60;19.42;;;17.70;99.90;;;;;;4937907;28;89543;-36
2023/10/02 08:24:13;;;;;;;25.63;17.38;;;17.80;99.90;;;;;;4938631;28;89290;-33
2023/10/02 08:26:46;;;;;;;30.77;19.80;;;17.80;99.90;;;;;;4937698;28;90281;-34
2023/10/02 08:29:15;;;;;;;30.17;19.58;;;17.90;99.90;;;;;;4942931;28;89807;-35
2023/10/02 08:31:49;;;;;;;38.30;18.23;;;18.00;99.90;;;;;;4943355;28;91434;-35
2023/10/02 08:34:20;;;;;;;24.27;18.50;;;18.10;99.90;;;;;;4944257;28;88719;-34
2023/10/02 08:36:48;;;;;;;31.80;20.08;;;18.10;99.90;;;;;;4937480;28;90427;-33
2023/10/02 08:39:21;;;;;;;30.88;19.15;;;18.10;99.90;;;;;;4952776;28;91288;-33
2023/10/02 08:41:50;;;;;;;36.28;18.90;;;18.20;99.90;;;;;;4955863;28;89892;-35
2023/10/02 08:44:17;;;;;;;31.42;18.75;;;18.30;99.90;;;;;;4956023;28;88792;-35
2023/10/02 08:46:43;;;;;;;27.55;18.25;;;18.30;99.90;;;;;;4954926;28;90606;-33
2023/10/02 08:49:12;;;;;;;37.50;19.65;;;18.40;99.90;;;;;;4955691;28;89307;-32
2023/10/02 08:51:39;;;;;;;29.58;18.52;;;18.40;99.90;;;;;;4955350;28;89979;-34
2023/10/02 08:54:05;;;;;;;26.80;18.60;;;18.50;99.90;;;;;;4955804;28;88192;-35
2023/10/02 08:56:44;;;;;;;29.33;19.20;;;18.60;99.90;;;;;;4955555;28;90699;-33
2023/10/02 08:59:26;;;;;;;27.95;17.30;;;18.70;99.90;;;;;;4955426;28;89874;-34
2023/10/02 09:02:07;;;;;;;28.65;16.95;;;18.60;99.90;;;;;;4956372;28;89516;-34
2023/10/02 09:04:33;;;;;;;115.53;32.00;;;18.60;99.90;;;;;;4954709;28;89274;-32
2023/10/02 09:06:59;;;;;;;63.65;21.33;;;18.60;99.90;;;;;;4954561;28;90124;-38
2023/10/02 09:09:27;;;;;;;34.08;19.60;;;18.60;99.90;;;;;;4943799;28;89725;-33
2023/10/02 09:11:57;;;;;;;123.35;41.53;;;18.80;99.90;;;;;;4953992;28;89543;-32
2023/10/02 09:17:19;;;;;;;31.50;17.83;;;19.00;99.90;;;;;;4954242;28;90249;-34
2023/10/02 09:20:03;;;;;;;149.77;35.45;;;19.10;99.90;;;;;;4954517;28;89615;-34
2023/10/02 09:22:41;;;;;;;418.52;79.88;;;19.20;99.90;;;;;;4955918;28;89341;-33
2023/10/02 09:25:13;;;;;;;34.58;20.00;;;19.30;99.90;;;;;;4953746;28;89306;-36
2023/10/02 09:28:00;;;;;;;39.45;19.40;;;19.40;99.90;;;;;;4955300;28;90382;-33
2023/10/02 09:30:36;;;;;;;33.30;18.95;;;19.40;99.90;;;;;;4958019;28;91830;-35
2023/10/02 09:33:25;;;;;;;28.27;18.30;;;19.50;99.90;;;;;;4958993;28;89938;-32
2023/10/02 09:35:52;;;;;;;29.25;17.92;;;19.60;99.90;;;;;;4958519;28;89714;-34
2023/10/02 09:38:23;;;;;;;26.83;18.80;;;19.60;99.90;;;;;;4958997;28;90468;-33
2023/10/02 09:41:08;;;;;;;32.33;18.58;;;19.70;99.90;;;;;;4957600;28;89277;-32
2023/10/02 09:43:35;;;;;;;30.75;18.30;;;19.80;99.90;;;;;;4958804;28;89563;-34
2023/10/02 09:46:06;;;;;;;38.15;20.45;;;19.80;99.90;;;;;;4946607;28;88512;-34
2023/10/02 09:51:29;;;;;;;32.63;20.17;;;19.80;99.90;;;;;;4955291;28;90351;-35
2023/10/02 09:54:28;;;;;;;339.35;73.82;;;19.70;99.90;;;;;;4958757;28;89817;-33
2023/10/02 09:57:05;;;;;;;164.88;138.05;;;19.80;99.90;;;;;;4948059;28;88941;-34
2023/10/02 09:59:48;;;;;;;110.70;42.38;;;19.80;99.90;;;;;;4957863;28;91219;-37
2023/10/02 10:10:49;;;;;;;36.97;20.75;;;20.20;99.90;;;;;;4951962;28;90090;-35
2023/10/02 10:13:32;;;;;;;29.02;21.58;;;20.20;99.90;;;;;;4939055;28;89003;-34
2023/10/02 10:16:18;;;;;;;38.35;22.10;;;20.20;99.90;;;;;;4938799;28;90260;-36
2023/10/02 10:21:57;;;;;;;35.88;25.40;;;20.30;99.90;;;;;;4938652;28;90243;-35
2023/10/02 10:27:39;;;;;;;39.40;26.10;;;20.40;99.90;;;;;;4947882;28;89557;-34
2023/10/02 10:30:24;;;;;;;40.10;25.00;;;20.40;99.90;;;;;;4945127;28;87517;-35
2023/10/02 10:35:51;;;;;;;35.50;22.75;;;20.40;99.90;;;;;;4957750;28;89944;-32
2023/10/02 10:38:26;;;;;;;34.60;22.85;;;20.50;99.90;;;;;;4948769;28;89866;-35
2023/10/02 10:41:00;;;;;;;35.58;22.95;;;20.40;99.90;;;;;;4956066;28;89234;-34
2023/10/02 10:43:43;;;;;;;32.90;21.05;;;20.40;99.90;;;;;;4959995;28;88832;-32
2023/10/02 10:46:31;;;;;;;30.38;19.70;;;20.20;99.90;;;;;;4957984;28;89319;-32
2023/10/02 10:48:59;;;;;;;31.02;21.23;;;20.30;99.90;;;;;;4946831;28;89435;-32
2023/10/02 10:51:28;;;;;;;25.92;19.55;;;20.30;99.90;;;;;;4950925;28;89165;-33
2023/10/02 10:54:27;;;;;;;28.55;19.27;;;20.40;99.90;;;;;;4938117;28;90248;-35
2023/10/02 11:00:24;;;;;;;29.60;20.20;;;20.50;99.90;;;;;;4938509;28;89713;-34
2023/10/02 11:02:57;;;;;;;28.40;18.92;;;20.60;99.90;;;;;;4938039;28;89760;-33
2023/10/02 11:05:23;;;;;;;30.23;19.10;;;20.70;99.90;;;;;;4938417;28;90541;-35
2023/10/02 11:07:49;;;;;;;27.42;18.63;;;20.70;99.90;;;;;;4938450;28;89524;-36
2023/10/02 11:10:23;;;;;;;28.48;20.92;;;20.80;99.90;;;;;;4938309;28;89322;-34
2023/10/02 11:13:00;;;;;;;25.35;17.73;;;20.90;99.90;;;;;;4957100;28;89681;-34
2023/10/02 11:15:46;;;;;;;29.80;19.88;;;21.10;99.90;;;;;;4956292;28;90539;-35
2023/10/02 11:18:20;;;;;;;24.77;18.23;;;21.10;99.90;;;;;;4955144;28;89727;-35
2023/10/02 11:20:51;;;;;;;30.90;19.85;;;21.30;99.90;;;;;;4944604;28;91667;-32
2023/10/02 11:23:45;;;;;;;28.50;18.90;;;21.30;99.90;;;;;;4954867;28;90203;-33
2023/10/02 11:26:13;;;;;;;31.25;17.88;;;21.20;99.90;;;;;;4956273;28;90943;-34
2023/10/02 11:28:41;;;;;;;23.02;16.75;;;21.30;99.90;;;;;;4955210;28;89862;-33
2023/10/02 11:31:36;;;;;;;29.20;19.73;;;21.30;99.90;;;;;;4955768;28;91161;-34
2023/10/02 11:34:07;;;;;;;32.90;17.77;;;21.30;99.90;;;;;;4947459;28;88256;-37
2023/10/02 11:36:35;;;;;;;24.45;15.00;;;21.20;99.90;;;;;;4956100;28;88402;-34
2023/10/02 11:39:08;;;;;;;;;;;21.30;99.90;;;;;;4956832;28;89921;-36
2023/10/02 11:41:34;;;;;;;29.27;13.88;;;21.30;99.90;;;;;;4959687;28;88951;-36
2023/10/02 11:44:00;;;;;;;30.33;16.48;;;21.30;99.90;;;;;;4954541;28;88996;-35
2023/10/02 11:46:26;;;;;;;24.33;14.73;;;21.30;99.90;;;;;;4957432;28;89715;-33
2023/10/02 11:48:54;;;;;;;20.90;13.95;;;21.30;99.90;;;;;;4950915;28;90704;-36
2023/10/02 11:51:19;;;;;;;;;;;21.30;99.90;;;;;;4938236;28;89769;-34
2023/10/02 11:53:45;;;;;;;33.35;15.20;;;21.30;99.90;;;;;;4938934;28;88274;-33
2023/10/02 11:56:10;;;;;;;26.52;14.82;;;21.20;99.90;;;;;;4940219;28;90493;-37
2023/10/02 11:58:36;;;;;;;20.25;13.75;;;21.30;99.90;;;;;;4956762;28;90476;-34
2023/10/02 12:01:06;;;;;;;23.23;14.05;;;21.40;99.90;;;;;;4939180;28;89525;-36
2023/10/02 12:03:36;;;;;;;19.88;13.10;;;21.30;99.90;;;;;;4946858;28;89407;-35
2023/10/02 12:06:03;;;;;;;22.27;14.82;;;21.40;99.90;;;;;;4956560;28;90462;-34
2023/10/02 12:08:29;;;;;;;20.88;13.15;;;21.40;99.90;;;;;;4956745;28;90842;-35
2023/10/02 12:10:55;;;;;;;22.75;12.43;;;21.40;99.90;;;;;;4955269;28;89079;-33
2023/10/02 12:13:21;;;;;;;25.80;13.65;;;21.50;99.90;;;;;;4956278;28;89167;-34
2023/10/02 12:15:47;;;;;;;27.70;15.48;;;21.40;99.90;;;;;;4956051;28;89861;-36
2023/10/02 12:18:12;;;;;;;22.35;13.57;;;21.50;99.90;;;;;;4953585;28;88868;-33
2023/10/02 12:20:42;;;;;;;21.85;14.55;;;21.60;99.90;;;;;;4956332;28;90141;-35
2023/10/02 12:23:09;;;;;;;20.73;14.15;;;21.70;99.90;;;;;;4955329;28;88049;-36
2023/10/02 12:25:36;;;;;;;38.88;18.95;;;21.80;99.90;;;;;;4956793;28;89629;-34
2023/10/02 12:28:02;;;;;;;82.97;37.88;;;21.80;99.90;;;;;;4955807;28;89982;-35
2023/10/02 12:30:32;;;;;;;24.95;16.10;;;21.80;99.90;;;;;;4948934;28;90092;-36
2023/10/02 12:33:00;;;;;;;21.58;14.57;;;21.70;99.90;;;;;;4949925;28;90669;-34
2023/10/02 12:35:26;;;;;;;20.85;14.43;;;21.80;99.90;;;;;;4956452;28;89875;-35
2023/10/02 12:37:53;;;;;;;23.70;17.00;;;21.80;99.90;;;;;;4954911;28;89104;-35
2023/10/02 12:40:20;;;;;;;23.83;15.47;;;21.80;99.90;;;;;;4956073;28;89344;-34
2023/10/02 12:42:46;;;;;;;28.40;15.68;;;21.80;99.90;;;;;;4947562;28;87993;-35
2023/10/02 12:45:13;;;;;;;25.38;14.40;;;21.90;99.90;;;;;;4943337;28;90107;-36
2023/10/02 12:47:40;;;;;;;29.52;16.50;;;21.90;99.90;;;;;;4955150;28;90155;-36
2023/10/02 12:50:10;;;;;;;23.30;16.08;;;21.90;99.90;;;;;;4943865;28;90208;-36
2023/10/02 12:52:36;;;;;;;25.55;14.75;;;22.00;99.90;;;;;;4956008;28;88617;-33
2023/10/02 12:55:02;;;;;;;27.10;16.85;;;22.10;99.90;;;;;;4955893;28;90463;-33
2023/10/02 12:57:28;;;;;;;27.73;16.45;;;22.10;99.90;;;;;;4951073;28;90444;-36
2023/10/02 12:59:54;;;;;;;24.48;16.45;;;22.20;99.90;;;;;;4942652;28;90565;-35
2023/10/02 13:02:19;;;;;;;22.48;15.25;;;22.20;99.90;;;;;;4948724;28;89054;-34
2023/10/02 13:04:45;;;;;;;23.75;13.82;;;22.20;99.90;;;;;;4950904;28;90222;-36
2023/10/02 13:07:10;;;;;;;23.23;14.57;;;22.30;99.90;;;;;;4948671;28;89871;-34
2023/10/02 13:09:36;;;;;;;21.52;14.27;;;22.30;99.90;;;;;;4952936;28;89675;-35
2023/10/02 13:12:02;;;;;;;21.13;13.65;;;22.30;99.90;;;;;;4953968;28;88969;-34
2023/10/02 13:14:28;;;;;;;23.92;12.95;;;22.30;99.90;;;;;;4949535;28;89117;-35
2023/10/02 13:16:54;;;;;;;21.55;13.55;;;22.40;99.90;;;;;;4948645;28;89630;-35
2023/10/02 13:19:20;;;;;;;27.58;13.90;;;22.40;99.90;;;;;;4953066;28;89714;-36
2023/10/02 13:21:51;;;;;;;19.70;12.05;;;22.40;99.90;;;;;;4952491;28;90447;-35
2023/10/02 13:24:17;;;;;;;23.05;14.43;;;22.40;99.90;;;;;;4948899;28;90277;-34
2023/10/02 13:26:43;;;;;;;21.58;14.43;;;22.50;99.90;;;;;;4950277;28;89139;-34
2023/10/02 13:29:09;;;;;;;23.27;12.93;;;22.50;99.90;;;;;;4949098;28;89054;-36
2023/10/02 13:31:35;;;;;;;22.05;13.80;;;22.50;99.90;;;;;;4943852;28;89691;-33
2023/10/02 13:34:05;;;;;;;24.58;14.30;;;22.60;99.90;;;;;;4949057;28;89618;-36
2023/10/02 13:36:30;;;;;;;21.77;13.52;;;22.50;99.90;;;;;;4950698;28;89687;-34
2023/10/02 13:38:57;;;;;;;21.95;12.70;;;22.40;99.90;;;;;;4943839;28;90465;-35
2023/10/02 13:41:24;;;;;;;21.27;14.88;;;22.50;99.90;;;;;;4939368;28;89278;-34
2023/10/02 13:43:52;;;;;;;21.90;13.25;;;22.50;99.90;;;;;;4948766;28;90064;-34
2023/10/02 13:46:20;;;;;;;24.27;15.00;;;22.50;99.90;;;;;;4949979;28;90862;-33